Time,TemperatureF,DewpointF,PressureIn,WindDirection,WindDirectionDegrees,WindSpeedMPH,WindSpeedGustMPH,Humidity,HourlyPrecipIn,Conditions,Clouds,dailyrainin,SoftwareType,DateUTC
2013-05-07 00:01:00,60.5,45.6,29.86,North,0,0.0,0.0,58,0.00,,,0.00,WUHU216HW,2013-05-07 07:01:00,
2013-05-07 00:06:00,60.1,44.8,29.86,North,0,0.0,0.0,57,0.00,,,0.00,WUHU216HW,2013-05-07 07:06:00,
2013-05-07 00:11:00,59.9,45.1,29.87,North,0,0.0,0.0,58,0.00,,,0.00,WUHU216HW,2013-05-07 07:11:00,
2013-05-07 00:16:00,59.6,44.7,29.87,North,0,0.0,0.0,58,0.00,,,0.00,WUHU216HW,2013-05-07 07:16:00,
2013-05-07 00:21:00,59.6,46.2,29.87,North,0,0.0,0.0,61,0.00,,,0.00,WUHU216HW,2013-05-07 07:21:00,
2013-05-07 00:26:00,59.4,46.0,29.87,North,0,0.0,0.0,61,0.00,,,0.00,WUHU216HW,2013-05-07 07:26:00,
2013-05-07 00:31:00,59.2,45.8,29.87,North,0,0.0,0.0,61,0.00,,,0.00,WUHU216HW,2013-05-07 07:31:00,
2013-05-07 00:36:00,59.0,45.2,29.87,North,0,0.0,0.0,60,0.00,,,0.00,WUHU216HW,2013-05-07 07:36:00,
2013-05-07 00:41:00,58.7,45.7,29.87,North,0,0.0,0.0,62,0.00,,,0.00,WUHU216HW,2013-05-07 07:41:00,
2013-05-07 00:46:00,58.5,46.4,29.88,North,0,0.0,0.0,64,0.00,,,0.00,WUHU216HW,2013-05-07 07:46:00,
2013-05-07 00:51:00,58.1,46.8,29.88,North,0,0.0,0.0,66,0.00,,,0.00,WUHU216HW,2013-05-07 07:51:00,
2013-05-07 00:56:00,58.0,45.8,29.88,North,0,0.0,0.0,64,0.00,,,0.00,WUHU216HW,2013-05-07 07:56:00,
2013-05-07 01:01:00,57.8,45.6,29.88,North,0,0.0,0.0,64,0.00,,,0.00,WUHU216HW,2013-05-07 08:01:00,
2013-05-07 01:06:00,57.4,46.1,29.88,North,0,0.0,0.0,66,0.00,,,0.00,WUHU216HW,2013-05-07 08:06:00,
2013-05-07 01:11:00,57.2,46.7,29.88,North,0,0.0,0.0,68,0.00,,,0.00,WUHU216HW,2013-05-07 08:11:00,
2013-05-07 01:16:00,56.9,46.0,29.88,North,0,0.0,0.0,67,0.00,,,0.00,WUHU216HW,2013-05-07 08:16:00,
2013-05-07 01:21:00,56.9,46.5,29.88,North,0,0.0,0.0,68,0.00,,,0.00,WUHU216HW,2013-05-07 08:21:00,
2013-05-07 01:26:00,56.7,46.3,29.88,North,0,0.0,0.0,68,0.00,,,0.00,WUHU216HW,2013-05-07 08:26:00,
2013-05-07 01:31:00,56.5,45.6,29.88,North,0,0.0,0.0,67,0.00,,,0.00,WUHU216HW,2013-05-07 08:31:00,
2013-05-07 01:36:00,56.3,45.9,29.88,North,0,0.0,0.0,68,0.00,,,0.00,WUHU216HW,2013-05-07 08:36:00,
2013-05-07 01:42:00,56.3,45.9,29.89,North,0,0.0,0.0,68,0.00,,,0.00,WUHU216HW,2013-05-07 08:42:00,
2013-05-07 01:47:00,56.2,46.2,29.88,North,0,0.0,0.0,69,0.00,,,0.00,WUHU216HW,2013-05-07 08:47:00,
2013-05-07 01:52:00,56.2,46.2,29.89,North,0,0.0,0.0,69,0.00,,,0.00,WUHU216HW,2013-05-07 08:52:00,
2013-05-07 01:57:00,56.0,46.7,29.89,North,0,0.0,0.0,71,0.00,,,0.00,WUHU216HW,2013-05-07 08:57:00,
2013-05-07 02:02:00,55.8,46.9,29.89,North,0,0.0,0.0,72,0.00,,,0.00,WUHU216HW,2013-05-07 09:02:00,
2013-05-07 02:07:00,55.8,46.5,29.89,North,0,0.0,0.0,71,0.00,,,0.00,WUHU216HW,2013-05-07 09:07:00,
2013-05-07 02:12:00,55.4,46.3,29.89,North,0,0.0,0.0,71,0.00,,,0.00,WUHU216HW,2013-05-07 09:12:00,
2013-05-07 02:17:00,55.4,46.9,29.89,North,0,0.0,0.0,73,0.00,,,0.00,WUHU216HW,2013-05-07 09:17:00,
2013-05-07 02:22:00,55.3,46.5,29.89,North,0,0.0,0.0,72,0.00,,,0.00,WUHU216HW,2013-05-07 09:22:00,
2013-05-07 02:27:00,55.3,46.5,29.90,North,0,0.0,0.0,72,0.00,,,0.00,WUHU216HW,2013-05-07 09:27:00,
2013-05-07 02:32:00,55.3,46.1,29.90,North,0,0.0,0.0,71,0.00,,,0.00,WUHU216HW,2013-05-07 09:32:00,
2013-05-07 02:37:00,55.3,46.5,29.90,North,0,0.0,0.0,72,0.00,,,0.00,WUHU216HW,2013-05-07 09:37:00,
2013-05-07 02:42:00,55.3,46.5,29.90,North,0,0.0,0.0,72,0.00,,,0.00,WUHU216HW,2013-05-07 09:42:00,
2013-05-07 02:47:00,55.3,46.5,29.90,North,0,0.0,0.0,72,0.00,,,0.00,WUHU216HW,2013-05-07 09:47:00,
2013-05-07 02:52:00,55.1,46.6,29.90,North,0,0.0,0.0,73,0.00,,,0.00,WUHU216HW,2013-05-07 09:52:00,
2013-05-07 02:57:00,55.1,46.3,29.90,North,0,0.0,0.0,72,0.00,,,0.00,WUHU216HW,2013-05-07 09:57:00,
2013-05-07 03:02:00,54.9,46.1,29.90,North,0,0.0,0.0,72,0.00,,,0.00,WUHU216HW,2013-05-07 10:02:00,
2013-05-07 03:07:00,54.7,46.3,29.91,North,0,0.0,0.0,73,0.00,,,0.00,WUHU216HW,2013-05-07 10:07:00,
2013-05-07 03:12:00,54.5,46.5,29.91,North,0,0.0,0.0,74,0.00,,,0.00,WUHU216HW,2013-05-07 10:12:00,
2013-05-07 03:17:00,54.4,45.9,29.91,North,0,0.0,0.0,73,0.00,,,0.00,WUHU216HW,2013-05-07 10:17:00,
2013-05-07 03:22:00,54.2,46.5,29.92,North,0,0.0,0.0,75,0.00,,,0.00,WUHU216HW,2013-05-07 10:22:00,
2013-05-07 03:27:00,54.0,46.3,29.92,North,0,0.0,0.0,75,0.00,,,0.00,WUHU216HW,2013-05-07 10:27:00,
2013-05-07 03:32:00,53.8,46.1,29.92,North,0,0.0,0.0,75,0.00,,,0.00,WUHU216HW,2013-05-07 10:32:00,
2013-05-07 03:37:00,53.6,45.9,29.92,North,0,0.0,0.0,75,0.00,,,0.00,WUHU216HW,2013-05-07 10:37:00,
2013-05-07 03:42:00,53.6,46.6,29.92,North,0,0.0,0.0,77,0.00,,,0.00,WUHU216HW,2013-05-07 10:42:00,
2013-05-07 03:47:00,53.3,45.5,29.93,North,0,0.0,0.0,75,0.00,,,0.00,WUHU216HW,2013-05-07 10:47:00,
2013-05-07 03:52:00,53.1,45.7,29.93,North,0,0.0,0.0,76,0.00,,,0.00,WUHU216HW,2013-05-07 10:52:00,
2013-05-07 03:57:00,52.9,46.6,29.93,North,0,0.0,0.0,79,0.00,,,0.00,WUHU216HW,2013-05-07 10:57:00,
2013-05-07 04:02:00,52.9,46.6,29.93,North,0,0.0,0.0,79,0.00,,,0.00,WUHU216HW,2013-05-07 11:02:00,
2013-05-07 04:08:00,52.6,46.6,29.93,North,0,0.0,0.0,80,0.00,,,0.00,WUHU216HW,2013-05-07 11:08:00,
2013-05-07 04:13:00,52.4,46.7,29.93,North,0,0.0,0.0,81,0.00,,,0.00,WUHU216HW,2013-05-07 11:13:00,
2013-05-07 04:18:00,52.2,46.3,29.93,North,0,0.0,0.0,80,0.00,,,0.00,WUHU216HW,2013-05-07 11:18:00,
2013-05-07 04:23:00,51.8,45.9,29.94,North,0,0.0,0.0,80,0.00,,,0.00,WUHU216HW,2013-05-07 11:23:00,
2013-05-07 04:29:00,51.5,45.5,29.94,North,0,0.0,0.0,80,0.00,,,0.00,WUHU216HW,2013-05-07 11:29:00,
2013-05-07 04:34:00,51.5,46.2,29.94,North,0,0.0,0.0,82,0.00,,,0.00,WUHU216HW,2013-05-07 11:34:00,
2013-05-07 04:41:00,51.1,45.8,29.94,North,0,0.0,0.0,82,0.00,,,0.00,WUHU216HW,2013-05-07 11:41:00,
2013-05-07 04:46:00,51.3,46.6,29.95,North,0,0.0,0.0,84,0.00,,,0.00,WUHU216HW,2013-05-07 11:46:00,
2013-05-07 04:51:00,51.1,46.7,29.95,North,0,0.0,0.0,85,0.00,,,0.00,WUHU216HW,2013-05-07 11:51:00,
2013-05-07 04:56:00,51.1,46.1,29.95,North,0,0.0,0.0,83,0.00,,,0.00,WUHU216HW,2013-05-07 11:56:00,
2013-05-07 05:01:00,51.1,46.5,29.95,North,0,0.0,0.0,84,0.00,,,0.00,WUHU216HW,2013-05-07 12:01:00,
2013-05-07 05:06:00,51.1,46.7,29.95,North,0,0.0,0.0,85,0.00,,,0.00,WUHU216HW,2013-05-07 12:06:00,
2013-05-07 05:11:00,51.1,46.5,29.95,North,0,0.0,0.0,84,0.00,,,0.00,WUHU216HW,2013-05-07 12:11:00,
2013-05-07 05:16:00,51.1,46.7,29.95,North,0,0.0,0.0,85,0.00,,,0.00,WUHU216HW,2013-05-07 12:16:00,
2013-05-07 05:21:00,50.9,46.3,29.95,North,0,0.0,0.0,84,0.00,,,0.00,WUHU216HW,2013-05-07 12:21:00,
2013-05-07 05:26:00,50.8,46.1,29.95,North,0,0.0,0.0,84,0.00,,,0.00,WUHU216HW,2013-05-07 12:26:00,
2013-05-07 05:31:00,50.9,46.3,29.95,North,0,0.0,0.0,84,0.00,,,0.00,WUHU216HW,2013-05-07 12:31:00,
2013-05-07 05:36:00,51.1,46.7,29.96,North,0,0.0,0.0,85,0.00,,,0.00,WUHU216HW,2013-05-07 12:36:00,
2013-05-07 05:41:00,51.3,46.3,29.96,North,0,0.0,0.0,83,0.00,,,0.00,WUHU216HW,2013-05-07 12:41:00,
2013-05-07 05:46:00,51.3,46.6,29.96,North,0,0.0,0.0,84,0.00,,,0.00,WUHU216HW,2013-05-07 12:46:00,
2013-05-07 05:51:00,51.5,46.8,29.96,North,0,0.0,0.0,84,0.00,,,0.00,WUHU216HW,2013-05-07 12:51:00,
2013-05-07 05:56:00,51.7,47.0,29.96,North,0,0.0,0.0,84,0.00,,,0.00,WUHU216HW,2013-05-07 12:56:00,
2013-05-07 06:01:00,51.8,47.4,29.96,North,0,0.0,0.0,85,0.00,,,0.00,WUHU216HW,2013-05-07 13:01:00,
2013-05-07 06:06:00,51.7,47.0,29.96,North,0,0.0,0.0,84,0.00,,,0.00,WUHU216HW,2013-05-07 13:06:00,
2013-05-07 06:11:00,51.5,46.8,29.97,North,0,0.0,0.0,84,0.00,,,0.00,WUHU216HW,2013-05-07 13:11:00,
2013-05-07 06:16:00,51.7,47.0,29.97,North,0,0.0,0.0,84,0.00,,,0.00,WUHU216HW,2013-05-07 13:16:00,
2013-05-07 06:21:00,51.7,47.0,29.97,North,0,0.0,0.0,84,0.00,,,0.00,WUHU216HW,2013-05-07 13:21:00,
2013-05-07 06:26:00,51.7,47.0,29.97,North,0,0.0,0.0,84,0.00,,,0.00,WUHU216HW,2013-05-07 13:26:00,
2013-05-07 06:31:00,51.7,47.0,29.97,North,0,0.0,0.0,84,0.00,,,0.00,WUHU216HW,2013-05-07 13:31:00,
2013-05-07 06:36:00,51.5,46.8,29.96,North,0,0.0,0.0,84,0.00,,,0.00,WUHU216HW,2013-05-07 13:36:00,
2013-05-07 06:41:00,51.7,46.6,29.97,North,0,0.0,0.0,83,0.00,,,0.00,WUHU216HW,2013-05-07 13:41:00,
2013-05-07 06:46:00,51.8,47.4,29.97,North,0,0.0,0.0,85,0.00,,,0.00,WUHU216HW,2013-05-07 13:46:00,
2013-05-07 06:51:00,51.7,47.0,29.97,North,0,0.0,0.0,84,0.00,,,0.00,WUHU216HW,2013-05-07 13:51:00,
2013-05-07 06:56:00,51.7,47.0,29.97,North,0,0.0,0.0,84,0.00,,,0.00,WUHU216HW,2013-05-07 13:56:00,
2013-05-07 07:01:00,51.7,47.0,29.97,North,0,0.0,0.0,84,0.00,,,0.00,WUHU216HW,2013-05-07 14:01:00,
2013-05-07 07:06:00,51.7,47.0,29.97,North,0,0.0,0.0,84,0.00,,,0.00,WUHU216HW,2013-05-07 14:06:00,
2013-05-07 07:11:00,51.8,46.8,29.97,North,0,0.0,0.0,83,0.00,,,0.00,WUHU216HW,2013-05-07 14:11:00,
2013-05-07 07:16:00,51.8,46.8,29.98,North,0,0.0,0.0,83,0.00,,,0.00,WUHU216HW,2013-05-07 14:16:00,
2013-05-07 07:21:00,52.0,47.0,29.98,North,0,0.0,0.0,83,0.00,,,0.00,WUHU216HW,2013-05-07 14:21:00,
2013-05-07 07:26:00,52.2,46.9,29.98,North,0,0.0,0.0,82,0.00,,,0.00,WUHU216HW,2013-05-07 14:26:00,
2013-05-07 07:31:00,52.2,47.2,29.98,North,0,0.0,0.0,83,0.00,,,0.00,WUHU216HW,2013-05-07 14:31:00,
2013-05-07 07:37:00,52.2,47.2,29.98,North,0,0.0,0.0,83,0.00,,,0.00,WUHU216HW,2013-05-07 14:37:00,
2013-05-07 07:42:00,52.4,47.1,29.98,North,0,0.0,0.0,82,0.00,,,0.00,WUHU216HW,2013-05-07 14:42:00,
2013-05-07 07:47:00,52.6,47.3,29.98,North,0,0.0,0.0,82,0.00,,,0.00,WUHU216HW,2013-05-07 14:47:00,
2013-05-07 07:52:00,52.7,47.4,29.98,North,0,0.0,0.0,82,0.00,,,0.00,WUHU216HW,2013-05-07 14:52:00,
2013-05-07 07:57:00,52.7,47.4,29.98,North,0,0.0,0.0,82,0.00,,,0.00,WUHU216HW,2013-05-07 14:57:00,
2013-05-07 08:02:00,52.9,47.6,29.98,North,0,0.0,0.0,82,0.00,,,0.00,WUHU216HW,2013-05-07 15:02:00,
2013-05-07 08:07:00,52.9,47.6,29.98,North,0,0.0,0.0,82,0.00,,,0.00,WUHU216HW,2013-05-07 15:07:00,
2013-05-07 08:12:00,52.9,47.9,29.98,North,0,0.0,0.0,83,0.00,,,0.00,WUHU216HW,2013-05-07 15:12:00,
2013-05-07 08:17:00,53.1,47.8,29.98,North,0,0.0,0.0,82,0.00,,,0.00,WUHU216HW,2013-05-07 15:17:00,
2013-05-07 08:22:00,53.3,48.0,29.98,North,0,0.0,0.0,82,0.00,,,0.00,WUHU216HW,2013-05-07 15:22:00,
2013-05-07 08:27:00,53.5,48.2,29.98,North,0,0.0,0.0,82,0.00,,,0.00,WUHU216HW,2013-05-07 15:27:00,
2013-05-07 08:32:00,53.5,48.2,29.98,North,0,0.0,0.0,82,0.00,,,0.00,WUHU216HW,2013-05-07 15:32:00,
2013-05-07 08:37:00,53.5,48.2,29.99,North,0,0.0,0.0,82,0.00,,,0.00,WUHU216HW,2013-05-07 15:37:00,
2013-05-07 08:42:00,53.6,48.3,29.99,North,0,0.0,0.0,82,0.00,,,0.00,WUHU216HW,2013-05-07 15:42:00,
2013-05-07 08:47:00,53.5,47.8,29.99,North,0,0.0,0.0,81,0.00,,,0.00,WUHU216HW,2013-05-07 15:47:00,
2013-05-07 08:52:00,53.6,48.3,29.99,North,0,0.0,0.0,82,0.00,,,0.00,WUHU216HW,2013-05-07 15:52:00,
2013-05-07 08:57:00,53.6,48.3,29.99,North,0,0.0,0.0,82,0.00,,,0.00,WUHU216HW,2013-05-07 15:57:00,
2013-05-07 09:02:00,53.8,48.2,29.99,North,0,0.0,0.0,81,0.00,,,0.00,WUHU216HW,2013-05-07 16:02:00,
2013-05-07 09:07:00,53.8,48.5,29.99,North,0,0.0,0.0,82,0.00,,,0.00,WUHU216HW,2013-05-07 16:07:00,
2013-05-07 09:12:00,53.8,48.2,29.99,North,0,0.0,0.0,81,0.00,,,0.00,WUHU216HW,2013-05-07 16:12:00,
2013-05-07 09:17:00,54.0,48.1,29.99,North,0,0.0,0.0,80,0.00,,,0.00,WUHU216HW,2013-05-07 16:17:00,
2013-05-07 09:22:00,54.0,48.1,29.99,North,0,0.0,0.0,80,0.00,,,0.00,WUHU216HW,2013-05-07 16:22:00,
2013-05-07 09:27:00,54.4,48.3,29.99,North,0,0.0,0.0,80,0.00,,,0.00,WUHU216HW,2013-05-07 16:27:00,
2013-05-07 09:32:00,54.5,48.2,29.99,North,0,0.0,0.0,79,0.00,,,0.00,WUHU216HW,2013-05-07 16:32:00,
2013-05-07 09:37:00,54.7,48.3,29.99,North,0,0.0,0.0,79,0.00,,,0.00,WUHU216HW,2013-05-07 16:37:00,
2013-05-07 09:42:00,55.1,48.7,29.99,North,0,0.0,0.0,79,0.00,,,0.00,WUHU216HW,2013-05-07 16:42:00,
2013-05-07 09:47:00,55.3,48.8,29.99,North,0,0.0,0.0,79,0.00,,,0.00,WUHU216HW,2013-05-07 16:47:00,
2013-05-07 09:52:00,55.1,48.7,29.99,North,0,0.0,0.0,79,0.00,,,0.00,WUHU216HW,2013-05-07 16:52:00,
2013-05-07 09:57:00,55.3,48.8,29.99,North,0,0.0,0.0,79,0.00,,,0.00,WUHU216HW,2013-05-07 16:57:00,
2013-05-07 10:02:00,55.4,49.0,30.00,North,0,0.0,0.0,79,0.00,,,0.00,WUHU216HW,2013-05-07 17:02:00,
2013-05-07 10:07:00,55.6,49.1,29.99,North,0,0.0,0.0,79,0.00,,,0.00,WUHU216HW,2013-05-07 17:07:00,
2013-05-07 10:12:00,55.8,49.3,29.99,North,0,0.0,0.0,79,0.00,,,0.00,WUHU216HW,2013-05-07 17:12:00,
2013-05-07 10:17:00,56.2,49.7,29.99,North,0,0.0,0.0,79,0.00,,,0.00,WUHU216HW,2013-05-07 17:17:00,
2013-05-07 10:22:00,56.2,49.7,29.99,North,0,0.0,0.0,79,0.00,,,0.00,WUHU216HW,2013-05-07 17:22:00,
2013-05-07 10:27:00,56.3,49.9,29.99,North,0,0.0,0.0,79,0.00,,,0.00,WUHU216HW,2013-05-07 17:27:00,
2013-05-07 10:32:00,56.9,50.4,29.99,North,0,0.0,0.0,79,0.00,,,0.00,WUHU216HW,2013-05-07 17:32:00,
2013-05-07 10:37:00,57.2,50.4,29.99,North,0,0.0,0.0,78,0.00,,,0.00,WUHU216HW,2013-05-07 17:37:00,
2013-05-07 10:42:00,57.6,50.4,29.99,North,0,0.0,0.0,77,0.00,,,0.00,WUHU216HW,2013-05-07 17:42:00,
2013-05-07 10:47:00,57.8,50.6,29.99,North,0,0.0,0.0,77,0.00,,,0.00,WUHU216HW,2013-05-07 17:47:00,
2013-05-07 10:52:00,58.1,50.6,29.99,North,0,0.0,0.0,76,0.00,,,0.00,WUHU216HW,2013-05-07 17:52:00,
2013-05-07 10:57:00,58.9,51.3,29.99,North,0,0.0,0.0,76,0.00,,,0.00,WUHU216HW,2013-05-07 17:57:00,
2013-05-07 11:02:00,59.4,51.5,29.99,North,0,0.0,0.0,75,0.00,,,0.00,WUHU216HW,2013-05-07 18:02:00,
2013-05-07 11:07:00,59.6,51.3,29.99,North,0,0.0,0.0,74,0.00,,,0.00,WUHU216HW,2013-05-07 18:07:00,
2013-05-07 11:12:00,59.8,51.1,29.99,North,0,0.0,0.0,73,0.00,,,0.00,WUHU216HW,2013-05-07 18:12:00,
2013-05-07 11:17:00,60.1,51.5,29.99,North,0,0.0,0.0,73,0.00,,,0.00,WUHU216HW,2013-05-07 18:17:00,
2013-05-07 11:22:00,60.8,51.8,29.99,North,0,0.0,0.0,72,0.00,,,0.00,WUHU216HW,2013-05-07 18:22:00,
2013-05-07 11:27:00,61.2,52.2,29.99,North,0,0.0,0.0,72,0.00,,,0.00,WUHU216HW,2013-05-07 18:27:00,
2013-05-07 11:32:00,61.7,52.3,29.99,North,0,0.0,0.0,71,0.00,,,0.00,WUHU216HW,2013-05-07 18:32:00,
2013-05-07 11:37:00,62.3,52.4,29.99,North,0,0.0,0.0,70,0.00,,,0.00,WUHU216HW,2013-05-07 18:37:00,
2013-05-07 11:42:00,62.5,52.6,29.99,North,0,0.0,0.0,70,0.00,,,0.00,WUHU216HW,2013-05-07 18:42:00,
2013-05-07 11:47:00,62.5,52.2,29.99,North,0,0.0,0.0,69,0.00,,,0.00,WUHU216HW,2013-05-07 18:47:00,
2013-05-07 11:52:00,62.3,52.4,29.99,North,0,0.0,0.0,70,0.00,,,0.00,WUHU216HW,2013-05-07 18:52:00,
2013-05-07 11:57:00,62.8,52.5,29.99,North,0,0.0,0.0,69,0.00,,,0.00,WUHU216HW,2013-05-07 18:57:00,
2013-05-07 12:02:00,62.3,52.0,29.99,North,0,0.0,0.0,69,0.00,,,0.00,WUHU216HW,2013-05-07 19:02:00,
2013-05-07 12:07:00,62.3,52.0,29.99,North,0,0.0,0.0,69,0.00,,,0.00,WUHU216HW,2013-05-07 19:07:00,
2013-05-07 12:12:00,62.3,52.0,29.99,North,0,0.0,0.0,69,0.00,,,0.00,WUHU216HW,2013-05-07 19:12:00,
2013-05-07 12:17:00,62.3,52.4,29.99,North,0,0.0,0.0,70,0.00,,,0.00,WUHU216HW,2013-05-07 19:17:00,
2013-05-07 12:23:00,62.5,52.2,29.98,North,0,0.0,0.0,69,0.00,,,0.00,WUHU216HW,2013-05-07 19:23:00,
2013-05-07 12:28:00,62.8,52.1,29.98,North,0,0.0,0.0,68,0.00,,,0.00,WUHU216HW,2013-05-07 19:28:00,
2013-05-07 12:33:00,63.4,53.0,29.98,North,0,0.0,0.0,69,0.00,,,0.00,WUHU216HW,2013-05-07 19:33:00,
2013-05-07 12:38:00,63.5,52.8,29.98,North,0,0.0,0.0,68,0.00,,,0.00,WUHU216HW,2013-05-07 19:38:00,
2013-05-07 12:43:00,63.5,52.4,29.98,North,0,0.0,0.0,67,0.00,,,0.00,WUHU216HW,2013-05-07 19:43:00,
2013-05-07 12:48:00,63.4,52.2,29.98,North,0,0.0,0.0,67,0.00,,,0.00,WUHU216HW,2013-05-07 19:48:00,
2013-05-07 12:53:00,63.2,52.0,29.98,North,0,0.0,0.0,67,0.00,,,0.00,WUHU216HW,2013-05-07 19:53:00,
2013-05-07 12:58:00,63.4,52.7,29.98,North,0,0.0,0.0,68,0.00,,,0.00,WUHU216HW,2013-05-07 19:58:00,
2013-05-07 13:03:00,63.7,53.0,29.98,North,0,0.0,0.0,68,0.00,,,0.00,WUHU216HW,2013-05-07 20:03:00,
2013-05-07 13:08:00,64.1,52.9,29.98,North,0,0.0,0.0,67,0.00,,,0.00,WUHU216HW,2013-05-07 20:08:00,
2013-05-07 13:13:00,64.3,52.7,29.98,North,0,0.0,0.0,66,0.00,,,0.00,WUHU216HW,2013-05-07 20:13:00,
2013-05-07 13:18:00,64.6,53.0,29.98,North,0,0.0,0.0,66,0.00,,,0.00,WUHU216HW,2013-05-07 20:18:00,
2013-05-07 13:23:00,65.0,52.9,29.97,North,0,0.0,0.0,65,0.00,,,0.00,WUHU216HW,2013-05-07 20:23:00,
2013-05-07 13:28:00,65.5,53.4,29.97,North,0,0.0,0.0,65,0.00,,,0.00,WUHU216HW,2013-05-07 20:28:00,
2013-05-07 13:33:00,65.5,53.0,29.97,North,0,0.0,0.0,64,0.00,,,0.00,WUHU216HW,2013-05-07 20:33:00,
2013-05-07 13:38:00,65.5,53.0,29.97,North,0,0.0,0.0,64,0.00,,,0.00,WUHU216HW,2013-05-07 20:38:00,
2013-05-07 13:43:00,65.3,52.8,29.97,North,0,0.0,0.0,64,0.00,,,0.00,WUHU216HW,2013-05-07 20:43:00,
2013-05-07 13:48:00,65.7,52.8,29.97,North,0,0.0,0.0,63,0.00,,,0.00,WUHU216HW,2013-05-07 20:48:00,
2013-05-07 13:53:00,65.7,52.8,29.98,North,0,0.0,0.0,63,0.00,,,0.00,WUHU216HW,2013-05-07 20:53:00,
2013-05-07 13:58:00,65.5,52.1,29.98,North,0,0.0,0.0,62,0.00,,,0.00,WUHU216HW,2013-05-07 20:58:00,
2013-05-07 14:03:00,64.8,51.8,29.98,North,0,0.0,0.0,63,0.00,,,0.00,WUHU216HW,2013-05-07 21:03:00,
2013-05-07 14:08:00,64.6,51.7,29.97,North,0,0.0,0.0,63,0.00,,,0.00,WUHU216HW,2013-05-07 21:08:00,
2013-05-07 14:13:00,65.0,51.6,29.97,North,0,0.0,0.0,62,0.00,,,0.00,WUHU216HW,2013-05-07 21:13:00,
2013-05-07 14:18:00,64.8,51.8,29.97,North,0,0.0,0.0,63,0.00,,,0.00,WUHU216HW,2013-05-07 21:18:00,
2013-05-07 14:23:00,65.7,52.8,29.97,North,0,0.0,0.0,63,0.00,,,0.00,WUHU216HW,2013-05-07 21:23:00,
2013-05-07 14:28:00,66.6,52.7,29.97,North,0,0.0,0.0,61,0.00,,,0.00,WUHU216HW,2013-05-07 21:28:00,
2013-05-07 14:33:00,67.0,53.1,29.97,North,0,0.0,0.0,61,0.00,,,0.00,WUHU216HW,2013-05-07 21:33:00,
2013-05-07 14:38:00,67.5,53.6,29.98,North,0,0.0,0.0,61,0.00,,,0.00,WUHU216HW,2013-05-07 21:38:00,
2013-05-07 14:43:00,67.7,52.8,29.98,North,0,0.0,0.0,59,0.00,,,0.00,WUHU216HW,2013-05-07 21:43:00,
2013-05-07 14:48:00,67.1,52.4,29.98,North,0,0.0,0.0,59,0.00,,,0.00,WUHU216HW,2013-05-07 21:48:00,
2013-05-07 14:53:00,66.8,52.0,29.97,North,0,0.0,0.0,59,0.00,,,0.00,WUHU216HW,2013-05-07 21:53:00,
2013-05-07 14:59:00,66.6,52.4,29.97,North,0,0.0,0.0,60,0.00,,,0.00,WUHU216HW,2013-05-07 21:59:00,
2013-05-07 15:04:00,67.1,52.4,29.97,North,0,0.0,0.0,59,0.00,,,0.00,WUHU216HW,2013-05-07 22:04:00,
2013-05-07 15:09:00,67.3,52.5,29.97,North,0,0.0,0.0,59,0.00,,,0.00,WUHU216HW,2013-05-07 22:09:00,
2013-05-07 15:14:00,68.2,52.8,29.97,North,0,0.0,0.0,58,0.00,,,0.00,WUHU216HW,2013-05-07 22:14:00,
2013-05-07 15:19:00,68.0,52.2,29.97,North,0,0.0,0.0,57,0.00,,,0.00,WUHU216HW,2013-05-07 22:19:00,
2013-05-07 15:24:00,67.7,52.8,29.97,North,0,0.0,0.0,59,0.00,,,0.00,WUHU216HW,2013-05-07 22:24:00,
2013-05-07 15:29:00,68.2,52.8,29.97,North,0,0.0,0.0,58,0.00,,,0.00,WUHU216HW,2013-05-07 22:29:00,
2013-05-07 15:34:00,68.4,52.0,29.97,North,0,0.0,0.0,56,0.00,,,0.00,WUHU216HW,2013-05-07 22:34:00,
2013-05-07 15:39:00,68.4,52.6,29.97,North,0,0.0,0.0,57,0.00,,,0.00,WUHU216HW,2013-05-07 22:39:00,
2013-05-07 15:44:00,68.8,53.4,29.96,North,0,0.0,0.0,58,0.00,,,0.00,WUHU216HW,2013-05-07 22:44:00,
2013-05-07 15:49:00,68.6,52.2,29.96,North,0,0.0,0.0,56,0.00,,,0.00,WUHU216HW,2013-05-07 22:49:00,
2013-05-07 15:54:00,68.2,52.4,29.97,North,0,0.0,0.0,57,0.00,,,0.00,WUHU216HW,2013-05-07 22:54:00,
2013-05-07 15:59:00,68.8,52.9,29.96,North,0,0.0,0.0,57,0.00,,,0.00,WUHU216HW,2013-05-07 22:59:00,
2013-05-07 16:04:00,68.9,52.6,29.96,North,0,0.0,0.0,56,0.00,,,0.00,WUHU216HW,2013-05-07 23:04:00,
2013-05-07 16:09:00,69.5,53.1,29.96,North,0,0.0,0.0,56,0.00,,,0.00,WUHU216HW,2013-05-07 23:09:00,
2013-05-07 16:14:00,69.8,52.9,29.96,North,0,0.0,0.0,55,0.00,,,0.00,WUHU216HW,2013-05-07 23:14:00,
2013-05-07 16:19:00,69.7,52.7,29.96,North,0,0.0,0.0,55,0.00,,,0.00,WUHU216HW,2013-05-07 23:19:00,
2013-05-07 16:24:00,69.1,51.8,29.96,North,0,0.0,0.0,54,0.00,,,0.00,WUHU216HW,2013-05-07 23:24:00,
2013-05-07 16:29:00,69.3,51.9,29.96,North,0,0.0,0.0,54,0.00,,,0.00,WUHU216HW,2013-05-07 23:29:00,
2013-05-07 16:34:00,69.3,51.9,29.96,North,0,0.0,0.0,54,0.00,,,0.00,WUHU216HW,2013-05-07 23:34:00,
2013-05-07 16:39:00,69.1,51.2,29.96,North,0,0.0,0.0,53,0.00,,,0.00,WUHU216HW,2013-05-07 23:39:00,
2013-05-07 16:44:00,69.5,52.6,29.96,North,0,0.0,0.0,55,0.00,,,0.00,WUHU216HW,2013-05-07 23:44:00,
2013-05-07 16:49:00,70.0,52.6,29.96,North,0,0.0,0.0,54,0.00,,,0.00,WUHU216HW,2013-05-07 23:49:00,
2013-05-07 16:54:00,70.4,52.4,29.96,North,0,0.0,0.0,53,0.00,,,0.00,WUHU216HW,2013-05-07 23:54:00,
2013-05-07 16:59:00,70.6,52.6,29.96,North,0,0.0,0.0,53,0.00,,,0.00,WUHU216HW,2013-05-07 23:59:00,
2013-05-07 17:04:00,70.7,52.8,29.96,North,0,0.0,0.0,53,0.00,,,0.00,WUHU216HW,2013-05-08 00:04:00,
2013-05-07 17:09:00,71.6,53.0,29.96,North,0,0.0,0.0,52,0.00,,,0.00,WUHU216HW,2013-05-08 00:09:00,
2013-05-07 17:14:00,73.4,54.2,29.96,North,0,0.0,0.0,51,0.00,,,0.00,WUHU216HW,2013-05-08 00:14:00,
2013-05-07 17:19:00,74.9,54.5,29.96,North,0,0.0,0.0,49,0.00,,,0.00,WUHU216HW,2013-05-08 00:19:00,
2013-05-07 17:24:00,75.4,55.0,29.96,North,0,0.0,0.0,49,0.00,,,0.00,WUHU216HW,2013-05-08 00:24:00,
2013-05-07 17:29:00,76.1,54.5,29.96,North,0,0.0,0.0,47,0.00,,,0.00,WUHU216HW,2013-05-08 00:29:00,
2013-05-07 17:34:00,75.8,52.8,29.96,North,0,0.0,0.0,45,0.00,,,0.00,WUHU216HW,2013-05-08 00:34:00,
2013-05-07 17:39:00,75.2,53.7,29.96,North,0,0.0,0.0,47,0.00,,,0.00,WUHU216HW,2013-05-08 00:39:00,
2013-05-07 17:44:00,76.0,54.3,29.96,North,0,0.0,0.0,47,0.00,,,0.00,WUHU216HW,2013-05-08 00:44:00,
2013-05-07 17:49:00,76.7,54.3,29.96,North,0,0.0,0.0,46,0.00,,,0.00,WUHU216HW,2013-05-08 00:49:00,
2013-05-07 17:54:00,76.9,53.8,29.96,North,0,0.0,0.0,45,0.00,,,0.00,WUHU216HW,2013-05-08 00:54:00,
2013-05-07 17:59:00,76.7,54.3,29.97,North,0,0.0,0.0,46,0.00,,,0.00,WUHU216HW,2013-05-08 00:59:00,
2013-05-07 18:04:00,77.4,54.4,29.97,North,0,0.0,0.0,45,0.00,,,0.00,WUHU216HW,2013-05-08 01:04:00,
2013-05-07 18:09:00,77.0,54.6,29.97,North,0,0.0,0.0,46,0.00,,,0.00,WUHU216HW,2013-05-08 01:09:00,
2013-05-07 18:14:00,77.0,54.0,29.97,North,0,0.0,0.0,45,0.00,,,0.00,WUHU216HW,2013-05-08 01:14:00,
2013-05-07 18:19:00,77.0,54.6,29.96,North,0,0.0,0.0,46,0.00,,,0.00,WUHU216HW,2013-05-08 01:19:00,
2013-05-07 18:24:00,77.2,54.2,29.96,North,0,0.0,0.0,45,0.00,,,0.00,WUHU216HW,2013-05-08 01:24:00,
2013-05-07 18:29:00,77.0,54.6,29.97,North,0,0.0,0.0,46,0.00,,,0.00,WUHU216HW,2013-05-08 01:29:00,
2013-05-07 18:34:00,77.8,54.6,29.97,North,0,0.0,0.0,45,0.00,,,0.00,WUHU216HW,2013-05-08 01:34:00,
2013-05-07 18:39:00,77.8,54.0,29.97,North,0,0.0,0.0,44,0.00,,,0.00,WUHU216HW,2013-05-08 01:39:00,
2013-05-07 18:44:00,76.9,53.8,29.96,North,0,0.0,0.0,45,0.00,,,0.00,WUHU216HW,2013-05-08 01:44:00,
2013-05-07 18:49:00,76.9,55.1,29.97,North,0,0.0,0.0,47,0.00,,,0.00,WUHU216HW,2013-05-08 01:49:00,
2013-05-07 18:54:00,77.6,54.5,29.97,North,0,0.0,0.0,45,0.00,,,0.00,WUHU216HW,2013-05-08 01:54:00,
2013-05-07 18:59:00,77.8,55.3,29.97,North,0,0.0,0.0,46,0.00,,,0.00,WUHU216HW,2013-05-08 01:59:00,
2013-05-07 19:04:00,77.4,54.9,29.97,North,0,0.0,0.0,46,0.00,,,0.00,WUHU216HW,2013-05-08 02:04:00,
2013-05-07 19:09:00,76.3,54.0,29.97,North,0,0.0,0.0,46,0.00,,,0.00,WUHU216HW,2013-05-08 02:09:00,
2013-05-07 19:14:00,75.1,54.0,29.97,North,0,0.0,0.0,48,0.00,,,0.00,WUHU216HW,2013-05-08 02:14:00,
2013-05-07 19:19:00,74.5,54.1,29.97,North,0,0.0,0.0,49,0.00,,,0.00,WUHU216HW,2013-05-08 02:19:00,
2013-05-07 19:24:00,74.3,53.9,29.97,North,0,0.0,0.0,49,0.00,,,0.00,WUHU216HW,2013-05-08 02:24:00,
2013-05-07 19:29:00,74.3,53.9,29.97,North,0,0.0,0.0,49,0.00,,,0.00,WUHU216HW,2013-05-08 02:29:00,
2013-05-07 19:34:00,74.0,54.2,29.97,North,0,0.0,0.0,50,0.00,,,0.00,WUHU216HW,2013-05-08 02:34:00,
2013-05-07 19:39:00,72.7,53.0,29.97,North,0,0.0,0.0,50,0.00,,,0.00,WUHU216HW,2013-05-08 02:39:00,
2013-05-07 19:44:00,70.9,52.4,29.97,North,0,0.0,0.0,52,0.00,,,0.00,WUHU216HW,2013-05-08 02:44:00,
2013-05-07 19:49:00,69.3,51.9,29.97,North,0,0.0,0.0,54,0.00,,,0.00,WUHU216HW,2013-05-08 02:49:00,
2013-05-07 19:54:00,68.4,51.6,29.97,North,0,0.0,0.0,55,0.00,,,0.00,WUHU216HW,2013-05-08 02:54:00,
2013-05-07 19:59:00,67.7,51.4,29.97,North,0,0.0,0.0,56,0.00,,,0.00,WUHU216HW,2013-05-08 02:59:00,
2013-05-07 20:04:00,67.0,51.2,29.97,North,0,0.0,0.0,57,0.00,,,0.00,WUHU216HW,2013-05-08 03:04:00,
2013-05-07 20:09:00,66.6,50.9,29.97,North,0,0.0,0.0,57,0.00,,,0.00,WUHU216HW,2013-05-08 03:09:00,
2013-05-07 20:14:00,66.1,51.4,29.97,North,0,0.0,0.0,59,0.00,,,0.00,WUHU216HW,2013-05-08 03:14:00,
2013-05-07 20:19:00,65.7,51.5,29.97,North,0,0.0,0.0,60,0.00,,,0.00,WUHU216HW,2013-05-08 03:19:00,
2013-05-07 20:24:00,65.2,50.5,29.97,North,0,0.0,0.0,59,0.00,,,0.00,WUHU216HW,2013-05-08 03:24:00,
2013-05-07 20:29:00,64.8,51.0,29.98,North,0,0.0,0.0,61,0.00,,,0.00,WUHU216HW,2013-05-08 03:29:00,
2013-05-07 20:34:00,64.3,51.0,29.98,North,0,0.0,0.0,62,0.00,,,0.00,WUHU216HW,2013-05-08 03:34:00,
2013-05-07 20:39:00,63.9,50.6,29.98,North,0,0.0,0.0,62,0.00,,,0.00,WUHU216HW,2013-05-08 03:39:00,
2013-05-07 20:44:00,63.4,50.1,29.98,North,0,0.0,0.0,62,0.00,,,0.00,WUHU216HW,2013-05-08 03:44:00,
2013-05-07 20:49:00,63.0,50.2,29.98,North,0,0.0,0.0,63,0.00,,,0.00,WUHU216HW,2013-05-08 03:49:00,
2013-05-07 20:54:00,62.6,50.2,29.99,North,0,0.0,0.0,64,0.00,,,0.00,WUHU216HW,2013-05-08 03:54:00,
2013-05-07 20:59:00,62.3,50.0,29.99,North,0,0.0,0.0,64,0.00,,,0.00,WUHU216HW,2013-05-08 03:59:00,
2013-05-07 21:01:00,62.3,50.0,29.99,North,0,0.0,0.0,64,0.00,,,0.00,WUHU216HW,2013-05-08 04:01:00,
2013-05-07 21:06:00,61.9,50.1,29.99,North,0,0.0,0.0,65,0.00,,,0.00,WUHU216HW,2013-05-08 04:06:00,
2013-05-07 21:11:00,61.6,50.1,29.99,North,0,0.0,0.0,66,0.00,,,0.00,WUHU216HW,2013-05-08 04:11:00,
2013-05-07 21:16:00,61.2,50.6,29.99,North,0,0.0,0.0,68,0.00,,,0.00,WUHU216HW,2013-05-08 04:16:00,
2013-05-07 21:21:00,60.8,49.5,29.99,North,0,0.0,0.0,66,0.00,,,0.00,WUHU216HW,2013-05-08 04:21:00,
2013-05-07 21:28:00,60.5,49.2,29.99,North,0,0.0,0.0,66,0.00,,,0.00,WUHU216HW,2013-05-08 04:28:00,
2013-05-07 21:33:00,60.3,49.0,30.00,North,0,0.0,0.0,66,0.00,,,0.00,WUHU216HW,2013-05-08 04:33:00,
2013-05-07 21:39:00,59.9,49.0,30.00,North,0,0.0,0.0,67,0.00,,,0.00,WUHU216HW,2013-05-08 04:39:00,
2013-05-07 21:44:00,59.6,49.1,30.00,North,0,0.0,0.0,68,0.00,,,0.00,WUHU216HW,2013-05-08 04:44:00,
2013-05-07 21:49:00,59.4,48.9,30.00,North,0,0.0,0.0,68,0.00,,,0.00,WUHU216HW,2013-05-08 04:49:00,
2013-05-07 21:54:00,59.0,48.9,30.00,North,0,0.0,0.0,69,0.00,,,0.00,WUHU216HW,2013-05-08 04:54:00,
2013-05-07 21:59:00,58.9,48.7,30.00,North,0,0.0,0.0,69,0.00,,,0.00,WUHU216HW,2013-05-08 04:59:00,
2013-05-07 22:04:00,58.7,48.5,30.00,North,0,0.0,0.0,69,0.00,,,0.00,WUHU216HW,2013-05-08 05:04:00,
2013-05-07 22:09:00,58.3,48.6,30.01,North,0,0.0,0.0,70,0.00,,,0.00,WUHU216HW,2013-05-08 05:09:00,
2013-05-07 22:14:00,58.1,48.4,30.01,North,0,0.0,0.0,70,0.00,,,0.00,WUHU216HW,2013-05-08 05:14:00,
2013-05-07 22:19:00,58.0,48.6,30.01,North,0,0.0,0.0,71,0.00,,,0.00,WUHU216HW,2013-05-08 05:19:00,
2013-05-07 22:24:00,57.8,48.8,30.01,North,0,0.0,0.0,72,0.00,,,0.00,WUHU216HW,2013-05-08 05:24:00,
2013-05-07 22:29:00,57.4,48.4,30.01,North,0,0.0,0.0,72,0.00,,,0.00,WUHU216HW,2013-05-08 05:29:00,
2013-05-07 22:34:00,57.2,48.6,30.02,North,0,0.0,0.0,73,0.00,,,0.00,WUHU216HW,2013-05-08 05:34:00,
2013-05-07 22:39:00,56.9,48.2,30.02,North,0,0.0,0.0,73,0.00,,,0.00,WUHU216HW,2013-05-08 05:39:00,
2013-05-07 22:44:00,56.5,48.2,30.02,North,0,0.0,0.0,74,0.00,,,0.00,WUHU216HW,2013-05-08 05:44:00,
2013-05-07 22:49:00,56.3,48.5,30.02,North,0,0.0,0.0,75,0.00,,,0.00,WUHU216HW,2013-05-08 05:49:00,
2013-05-07 22:54:00,56.2,48.0,30.03,North,0,0.0,0.0,74,0.00,,,0.00,WUHU216HW,2013-05-08 05:54:00,
2013-05-07 22:59:00,55.8,48.0,30.03,North,0,0.0,0.0,75,0.00,,,0.00,WUHU216HW,2013-05-08 05:59:00,
2013-05-07 23:04:00,55.6,47.4,30.02,North,0,0.0,0.0,74,0.00,,,0.00,WUHU216HW,2013-05-08 06:04:00,
2013-05-07 23:09:00,55.4,47.3,30.03,North,0,0.0,0.0,74,0.00,,,0.00,WUHU216HW,2013-05-08 06:09:00,
2013-05-07 23:14:00,55.1,47.6,30.03,North,0,0.0,0.0,76,0.00,,,0.00,WUHU216HW,2013-05-08 06:14:00,
2013-05-07 23:19:00,54.9,47.4,30.03,North,0,0.0,0.0,76,0.00,,,0.00,WUHU216HW,2013-05-08 06:19:00,
2013-05-07 23:24:00,54.7,47.3,30.03,North,0,0.0,0.0,76,0.00,,,0.00,WUHU216HW,2013-05-08 06:24:00,
2013-05-07 23:29:00,54.4,47.0,30.03,North,0,0.0,0.0,76,0.00,,,0.00,WUHU216HW,2013-05-08 06:29:00,
2013-05-07 23:34:00,54.0,46.6,30.03,North,0,0.0,0.0,76,0.00,,,0.00,WUHU216HW,2013-05-08 06:34:00,
2013-05-07 23:39:00,54.0,47.0,30.03,North,0,0.0,0.0,77,0.00,,,0.00,WUHU216HW,2013-05-08 06:39:00,
2013-05-07 23:44:00,53.8,46.5,30.04,North,0,0.0,0.0,76,0.00,,,0.00,WUHU216HW,2013-05-08 06:44:00,
2013-05-07 23:49:00,53.8,46.8,30.03,North,0,0.0,0.0,77,0.00,,,0.00,WUHU216HW,2013-05-08 06:49:00,
2013-05-07 23:54:00,53.6,47.0,30.04,North,0,0.0,0.0,78,0.00,,,0.00,WUHU216HW,2013-05-08 06:54:00,
2013-05-07 23:59:00,53.5,46.8,30.04,North,0,0.0,0.0,78,0.00,,,0.00,WUHU216HW,2013-05-08 06:59:00,